Terminal Aerodrome Forecast
Issued by NWS

Home | Current Version | Previous Version | Text Only | Print | Product List | Glossary On
Versions: 1 2 3 4 5 6 7 8 9 10 11 12 13 14 15 16 17 18 19 20 21 22 23 24 25 26 27 28 29 30 31 32
000
FTUS45 KBOU 310103 AAA
TAFAPA
TAF AMD
KAPA 310103Z 3101/3124 19011KT P6SM VCSH SCT090 BKN140
      TEMPO 3101/3102 VRB20G32KT
     FM310300 16009KT P6SM FEW090 BKN140
     FM310600 19008KT P6SM SCT140 SCT200
     FM311300 23006KT P6SM SCT140 BKN200
     FM311800 05009KT P6SM SCT080 BKN150 PROB30 3120/3124 VRB30G32KT
      -TSRA BKN080CB=

USA.gov is the U.S. government's official web portal to all federal, state and local government web resources and services.